sensor_id;sensor_type;location;lat;lon;timestamp;P1;durP1;ratioP1;P2;durP2;ratioP2
51036;SDS011;37064;59.346;18.058;2023-03-07T00:00:33;1.10;;;1.00;;
51036;SDS011;37064;59.346;18.058;2023-03-07T00:02:59;2.65;;;1.48;;
51036;SDS011;37064;59.346;18.058;2023-03-07T00:05:25;2.83;;;1.20;;
51036;SDS011;37064;59.346;18.058;2023-03-07T00:07:51;3.88;;;1.10;;
51036;SDS011;37064;59.346;18.058;2023-03-07T00:10:17;2.80;;;1.70;;
51036;SDS011;37064;59.346;18.058;2023-03-07T00:12:43;2.80;;;1.67;;
51036;SDS011;37064;59.346;18.058;2023-03-07T00:15:09;2.92;;;1.40;;
51036;SDS011;37064;59.346;18.058;2023-03-07T00:17:35;5.97;;;1.75;;
51036;SDS011;37064;59.346;18.058;2023-03-07T00:20:03;4.55;;;2.35;;
51036;SDS011;37064;59.346;18.058;2023-03-07T00:22:34;5.00;;;1.88;;
51036;SDS011;37064;59.346;18.058;2023-03-07T00:25:00;6.65;;;2.00;;
51036;SDS011;37064;59.346;18.058;2023-03-07T00:27:28;9.73;;;3.95;;
51036;SDS011;37064;59.346;18.058;2023-03-07T00:29:54;6.82;;;2.33;;
51036;SDS011;37064;59.346;18.058;2023-03-07T00:32:20;5.68;;;2.67;;
51036;SDS011;37064;59.346;18.058;2023-03-07T00:34:46;9.98;;;3.13;;
51036;SDS011;37064;59.346;18.058;2023-03-07T00:37:12;8.60;;;3.05;;
51036;SDS011;37064;59.346;18.058;2023-03-07T00:39:39;8.10;;;2.63;;
51036;SDS011;37064;59.346;18.058;2023-03-07T00:42:05;6.72;;;2.80;;
51036;SDS011;37064;59.346;18.058;2023-03-07T00:44:32;9.85;;;3.28;;
51036;SDS011;37064;59.346;18.058;2023-03-07T00:46:58;6.20;;;1.98;;
51036;SDS011;37064;59.346;18.058;2023-03-07T00:49:24;5.13;;;2.15;;
51036;SDS011;37064;59.346;18.058;2023-03-07T00:51:51;7.85;;;2.47;;
51036;SDS011;37064;59.346;18.058;2023-03-07T00:54:17;6.88;;;2.30;;
51036;SDS011;37064;59.346;18.058;2023-03-07T00:56:43;7.55;;;3.17;;
51036;SDS011;37064;59.346;18.058;2023-03-07T00:59:09;6.40;;;2.63;;
51036;SDS011;37064;59.346;18.058;2023-03-07T01:01:35;4.53;;;2.08;;
51036;SDS011;37064;59.346;18.058;2023-03-07T01:04:01;5.78;;;3.03;;
51036;SDS011;37064;59.346;18.058;2023-03-07T01:06:29;6.53;;;2.85;;
51036;SDS011;37064;59.346;18.058;2023-03-07T01:08:56;8.07;;;3.08;;
51036;SDS011;37064;59.346;18.058;2023-03-07T01:11:23;3.75;;;2.00;;
51036;SDS011;37064;59.346;18.058;2023-03-07T01:13:49;6.35;;;2.40;;
51036;SDS011;37064;59.346;18.058;2023-03-07T01:16:16;5.03;;;2.63;;
51036;SDS011;37064;59.346;18.058;2023-03-07T01:18:43;4.03;;;2.30;;
51036;SDS011;37064;59.346;18.058;2023-03-07T01:21:17;8.55;;;3.53;;
51036;SDS011;37064;59.346;18.058;2023-03-07T01:23:43;6.45;;;3.10;;
51036;SDS011;37064;59.346;18.058;2023-03-07T01:26:11;8.07;;;3.17;;
51036;SDS011;37064;59.346;18.058;2023-03-07T01:28:37;4.60;;;2.70;;
51036;SDS011;37064;59.346;18.058;2023-03-07T01:31:03;5.13;;;3.30;;
51036;SDS011;37064;59.346;18.058;2023-03-07T01:33:29;10.57;;;3.20;;
51036;SDS011;37064;59.346;18.058;2023-03-07T01:35:55;6.10;;;2.75;;
51036;SDS011;37064;59.346;18.058;2023-03-07T01:38:21;6.95;;;3.25;;
51036;SDS011;37064;59.346;18.058;2023-03-07T01:40:47;7.13;;;2.40;;
51036;SDS011;37064;59.346;18.058;2023-03-07T01:43:24;4.03;;;2.08;;
51036;SDS011;37064;59.346;18.058;2023-03-07T01:48:16;3.92;;;2.47;;
51036;SDS011;37064;59.346;18.058;2023-03-07T01:50:42;3.58;;;2.38;;
51036;SDS011;37064;59.346;18.058;2023-03-07T01:53:09;4.50;;;2.55;;
51036;SDS011;37064;59.346;18.058;2023-03-07T01:55:36;7.18;;;2.47;;
51036;SDS011;37064;59.346;18.058;2023-03-07T01:58:06;6.35;;;2.30;;
51036;SDS011;37064;59.346;18.058;2023-03-07T02:00:33;5.50;;;2.60;;
51036;SDS011;37064;59.346;18.058;2023-03-07T02:05:30;5.78;;;2.75;;
51036;SDS011;37064;59.346;18.058;2023-03-07T02:07:57;4.50;;;3.47;;
51036;SDS011;37064;59.346;18.058;2023-03-07T02:10:25;3.70;;;2.25;;
51036;SDS011;37064;59.346;18.058;2023-03-07T02:12:52;7.65;;;2.97;;
51036;SDS011;37064;59.346;18.058;2023-03-07T02:15:18;5.63;;;2.80;;
51036;SDS011;37064;59.346;18.058;2023-03-07T02:17:44;10.75;;;3.15;;
51036;SDS011;37064;59.346;18.058;2023-03-07T02:22:37;10.60;;;2.83;;
51036;SDS011;37064;59.346;18.058;2023-03-07T02:25:05;5.82;;;2.60;;
51036;SDS011;37064;59.346;18.058;2023-03-07T02:27:33;10.05;;;3.65;;
51036;SDS011;37064;59.346;18.058;2023-03-07T02:30:01;8.20;;;2.78;;
51036;SDS011;37064;59.346;18.058;2023-03-07T02:32:28;8.27;;;3.10;;
51036;SDS011;37064;59.346;18.058;2023-03-07T02:34:54;6.53;;;3.40;;
51036;SDS011;37064;59.346;18.058;2023-03-07T02:37:24;8.85;;;2.72;;
51036;SDS011;37064;59.346;18.058;2023-03-07T02:39:51;5.15;;;3.17;;
51036;SDS011;37064;59.346;18.058;2023-03-07T02:42:22;4.65;;;2.42;;
51036;SDS011;37064;59.346;18.058;2023-03-07T02:44:58;5.43;;;2.47;;
51036;SDS011;37064;59.346;18.058;2023-03-07T02:47:25;11.88;;;2.92;;
51036;SDS011;37064;59.346;18.058;2023-03-07T02:49:51;10.57;;;2.85;;
51036;SDS011;37064;59.346;18.058;2023-03-07T02:52:17;3.67;;;2.65;;
51036;SDS011;37064;59.346;18.058;2023-03-07T02:54:43;6.03;;;2.63;;
51036;SDS011;37064;59.346;18.058;2023-03-07T02:57:09;4.72;;;2.53;;
51036;SDS011;37064;59.346;18.058;2023-03-07T02:59:35;5.50;;;2.40;;
51036;SDS011;37064;59.346;18.058;2023-03-07T03:02:01;4.65;;;2.20;;
51036;SDS011;37064;59.346;18.058;2023-03-07T03:04:27;5.05;;;2.53;;
51036;SDS011;37064;59.346;18.058;2023-03-07T03:06:53;5.10;;;2.47;;
51036;SDS011;37064;59.346;18.058;2023-03-07T03:09:20;3.88;;;2.75;;
51036;SDS011;37064;59.346;18.058;2023-03-07T03:11:46;5.50;;;3.00;;
51036;SDS011;37064;59.346;18.058;2023-03-07T03:14:12;8.23;;;2.25;;
51036;SDS011;37064;59.346;18.058;2023-03-07T03:16:38;2.83;;;2.10;;
51036;SDS011;37064;59.346;18.058;2023-03-07T03:19:04;5.78;;;2.30;;
51036;SDS011;37064;59.346;18.058;2023-03-07T03:21:30;3.92;;;1.98;;
51036;SDS011;37064;59.346;18.058;2023-03-07T03:23:56;4.20;;;2.50;;
51036;SDS011;37064;59.346;18.058;2023-03-07T03:26:22;12.50;;;3.55;;
51036;SDS011;37064;59.346;18.058;2023-03-07T03:28:48;6.15;;;2.63;;
51036;SDS011;37064;59.346;18.058;2023-03-07T03:31:14;10.25;;;2.35;;
51036;SDS011;37064;59.346;18.058;2023-03-07T03:33:41;7.80;;;2.83;;
51036;SDS011;37064;59.346;18.058;2023-03-07T03:36:14;9.20;;;2.85;;
51036;SDS011;37064;59.346;18.058;2023-03-07T03:38:41;8.00;;;2.83;;
51036;SDS011;37064;59.346;18.058;2023-03-07T03:41:09;9.82;;;2.55;;
51036;SDS011;37064;59.346;18.058;2023-03-07T03:43:35;3.95;;;2.13;;
51036;SDS011;37064;59.346;18.058;2023-03-07T03:46:02;5.03;;;2.13;;
51036;SDS011;37064;59.346;18.058;2023-03-07T03:48:28;7.50;;;2.67;;
51036;SDS011;37064;59.346;18.058;2023-03-07T03:51:01;6.97;;;2.65;;
51036;SDS011;37064;59.346;18.058;2023-03-07T03:53:29;6.72;;;2.58;;
51036;SDS011;37064;59.346;18.058;2023-03-07T03:56:02;7.13;;;2.97;;
51036;SDS011;37064;59.346;18.058;2023-03-07T03:58:28;7.82;;;2.95;;
51036;SDS011;37064;59.346;18.058;2023-03-07T04:00:54;8.45;;;3.25;;
51036;SDS011;37064;59.346;18.058;2023-03-07T04:03:20;5.57;;;3.30;;
51036;SDS011;37064;59.346;18.058;2023-03-07T04:05:46;13.80;;;3.70;;
51036;SDS011;37064;59.346;18.058;2023-03-07T04:08:12;5.45;;;2.35;;
51036;SDS011;37064;59.346;18.058;2023-03-07T04:10:38;8.18;;;3.10;;
51036;SDS011;37064;59.346;18.058;2023-03-07T04:13:04;7.75;;;3.10;;
51036;SDS011;37064;59.346;18.058;2023-03-07T04:15:30;7.50;;;2.55;;
51036;SDS011;37064;59.346;18.058;2023-03-07T04:17:56;10.38;;;3.13;;
51036;SDS011;37064;59.346;18.058;2023-03-07T04:20:22;15.25;;;3.20;;
51036;SDS011;37064;59.346;18.058;2023-03-07T04:22:48;9.75;;;2.83;;
51036;SDS011;37064;59.346;18.058;2023-03-07T04:25:14;3.67;;;2.05;;
51036;SDS011;37064;59.346;18.058;2023-03-07T04:27:40;6.20;;;2.80;;
51036;SDS011;37064;59.346;18.058;2023-03-07T04:30:07;7.22;;;2.58;;
51036;SDS011;37064;59.346;18.058;2023-03-07T04:32:33;6.95;;;2.70;;
51036;SDS011;37064;59.346;18.058;2023-03-07T04:34:59;8.13;;;3.05;;
51036;SDS011;37064;59.346;18.058;2023-03-07T04:37:25;4.30;;;2.65;;
51036;SDS011;37064;59.346;18.058;2023-03-07T04:39:51;5.30;;;3.03;;
51036;SDS011;37064;59.346;18.058;2023-03-07T04:42:17;5.07;;;2.20;;
51036;SDS011;37064;59.346;18.058;2023-03-07T04:44:43;6.32;;;2.15;;
51036;SDS011;37064;59.346;18.058;2023-03-07T04:47:09;4.97;;;2.70;;
51036;SDS011;37064;59.346;18.058;2023-03-07T04:49:35;8.18;;;2.95;;
51036;SDS011;37064;59.346;18.058;2023-03-07T04:52:01;3.97;;;2.50;;
51036;SDS011;37064;59.346;18.058;2023-03-07T04:54:27;5.57;;;2.60;;
51036;SDS011;37064;59.346;18.058;2023-03-07T04:56:53;6.93;;;2.00;;
51036;SDS011;37064;59.346;18.058;2023-03-07T04:59:19;4.10;;;2.28;;
51036;SDS011;37064;59.346;18.058;2023-03-07T05:01:45;4.05;;;1.92;;
51036;SDS011;37064;59.346;18.058;2023-03-07T05:04:11;4.35;;;2.45;;
51036;SDS011;37064;59.346;18.058;2023-03-07T05:06:37;7.18;;;2.28;;
51036;SDS011;37064;59.346;18.058;2023-03-07T05:09:03;9.10;;;2.20;;
51036;SDS011;37064;59.346;18.058;2023-03-07T05:11:29;11.18;;;5.35;;
51036;SDS011;37064;59.346;18.058;2023-03-07T05:13:55;7.15;;;2.30;;
51036;SDS011;37064;59.346;18.058;2023-03-07T05:16:21;3.03;;;1.77;;
51036;SDS011;37064;59.346;18.058;2023-03-07T05:18:47;8.30;;;2.13;;
51036;SDS011;37064;59.346;18.058;2023-03-07T05:21:13;4.57;;;2.42;;
51036;SDS011;37064;59.346;18.058;2023-03-07T05:23:39;8.60;;;2.70;;
51036;SDS011;37064;59.346;18.058;2023-03-07T05:26:05;10.57;;;2.35;;
51036;SDS011;37064;59.346;18.058;2023-03-07T05:28:31;6.65;;;1.92;;
51036;SDS011;37064;59.346;18.058;2023-03-07T05:30:58;5.10;;;2.00;;
51036;SDS011;37064;59.346;18.058;2023-03-07T05:33:24;11.50;;;2.10;;
51036;SDS011;37064;59.346;18.058;2023-03-07T05:35:49;6.90;;;1.75;;
51036;SDS011;37064;59.346;18.058;2023-03-07T05:38:16;7.35;;;2.55;;
51036;SDS011;37064;59.346;18.058;2023-03-07T05:40:42;9.57;;;2.75;;
51036;SDS011;37064;59.346;18.058;2023-03-07T05:43:08;9.90;;;2.40;;
51036;SDS011;37064;59.346;18.058;2023-03-07T05:45:34;4.88;;;2.28;;
51036;SDS011;37064;59.346;18.058;2023-03-07T05:48:00;4.45;;;2.00;;
51036;SDS011;37064;59.346;18.058;2023-03-07T05:50:26;4.95;;;2.00;;
51036;SDS011;37064;59.346;18.058;2023-03-07T05:52:52;5.10;;;2.30;;
51036;SDS011;37064;59.346;18.058;2023-03-07T05:55:18;6.25;;;2.33;;
51036;SDS011;37064;59.346;18.058;2023-03-07T05:57:44;8.88;;;2.17;;
51036;SDS011;37064;59.346;18.058;2023-03-07T06:00:10;9.25;;;2.85;;
51036;SDS011;37064;59.346;18.058;2023-03-07T06:02:36;4.32;;;2.17;;
51036;SDS011;37064;59.346;18.058;2023-03-07T06:05:02;5.18;;;1.73;;
51036;SDS011;37064;59.346;18.058;2023-03-07T06:07:28;7.10;;;2.28;;
51036;SDS011;37064;59.346;18.058;2023-03-07T06:09:54;4.55;;;2.00;;
51036;SDS011;37064;59.346;18.058;2023-03-07T06:12:20;12.18;;;2.75;;
51036;SDS011;37064;59.346;18.058;2023-03-07T06:14:46;4.10;;;1.58;;
51036;SDS011;37064;59.346;18.058;2023-03-07T06:17:12;7.18;;;2.75;;
51036;SDS011;37064;59.346;18.058;2023-03-07T06:19:38;3.40;;;1.23;;
51036;SDS011;37064;59.346;18.058;2023-03-07T06:22:04;8.45;;;1.83;;
51036;SDS011;37064;59.346;18.058;2023-03-07T06:24:32;3.75;;;1.33;;
51036;SDS011;37064;59.346;18.058;2023-03-07T06:26:58;4.50;;;1.65;;
51036;SDS011;37064;59.346;18.058;2023-03-07T06:29:25;6.72;;;1.58;;
51036;SDS011;37064;59.346;18.058;2023-03-07T06:31:51;1.90;;;1.20;;
51036;SDS011;37064;59.346;18.058;2023-03-07T06:34:17;3.58;;;1.40;;
51036;SDS011;37064;59.346;18.058;2023-03-07T06:36:43;6.97;;;1.67;;
51036;SDS011;37064;59.346;18.058;2023-03-07T06:39:09;5.07;;;1.45;;
51036;SDS011;37064;59.346;18.058;2023-03-07T06:41:35;2.28;;;1.33;;
51036;SDS011;37064;59.346;18.058;2023-03-07T06:44:01;1.88;;;1.35;;
51036;SDS011;37064;59.346;18.058;2023-03-07T06:46:27;2.33;;;0.80;;
51036;SDS011;37064;59.346;18.058;2023-03-07T06:48:53;3.10;;;1.33;;
51036;SDS011;37064;59.346;18.058;2023-03-07T06:51:19;4.88;;;0.98;;
51036;SDS011;37064;59.346;18.058;2023-03-07T06:53:45;4.72;;;1.20;;
51036;SDS011;37064;59.346;18.058;2023-03-07T06:56:11;4.40;;;1.20;;
51036;SDS011;37064;59.346;18.058;2023-03-07T06:58:37;4.65;;;0.80;;
51036;SDS011;37064;59.346;18.058;2023-03-07T07:01:03;4.05;;;1.45;;
51036;SDS011;37064;59.346;18.058;2023-03-07T07:03:29;1.88;;;0.98;;
51036;SDS011;37064;59.346;18.058;2023-03-07T07:05:55;1.38;;;0.75;;
51036;SDS011;37064;59.346;18.058;2023-03-07T07:08:21;1.45;;;0.70;;
51036;SDS011;37064;59.346;18.058;2023-03-07T07:10:47;0.95;;;0.70;;
51036;SDS011;37064;59.346;18.058;2023-03-07T07:13:13;4.50;;;0.80;;
51036;SDS011;37064;59.346;18.058;2023-03-07T07:15:39;1.95;;;1.08;;
51036;SDS011;37064;59.346;18.058;2023-03-07T07:18:05;4.18;;;1.00;;
51036;SDS011;37064;59.346;18.058;2023-03-07T07:20:31;3.45;;;1.42;;
51036;SDS011;37064;59.346;18.058;2023-03-07T07:22:57;1.98;;;1.10;;
51036;SDS011;37064;59.346;18.058;2023-03-07T07:25:23;3.53;;;1.70;;
51036;SDS011;37064;59.346;18.058;2023-03-07T07:27:49;4.40;;;1.02;;
51036;SDS011;37064;59.346;18.058;2023-03-07T07:30:15;3.08;;;1.40;;
51036;SDS011;37064;59.346;18.058;2023-03-07T07:32:41;1.73;;;1.10;;
51036;SDS011;37064;59.346;18.058;2023-03-07T07:35:08;2.15;;;1.15;;
51036;SDS011;37064;59.346;18.058;2023-03-07T07:37:34;2.40;;;1.00;;
51036;SDS011;37064;59.346;18.058;2023-03-07T07:40:00;2.22;;;1.20;;
51036;SDS011;37064;59.346;18.058;2023-03-07T07:42:26;3.08;;;1.88;;
51036;SDS011;37064;59.346;18.058;2023-03-07T07:44:52;1.30;;;1.00;;
51036;SDS011;37064;59.346;18.058;2023-03-07T07:47:18;2.65;;;0.82;;
51036;SDS011;37064;59.346;18.058;2023-03-07T07:49:44;1.50;;;0.75;;
51036;SDS011;37064;59.346;18.058;2023-03-07T07:52:10;1.65;;;0.80;;
51036;SDS011;37064;59.346;18.058;2023-03-07T07:54:36;3.25;;;1.38;;
51036;SDS011;37064;59.346;18.058;2023-03-07T07:57:02;2.05;;;0.98;;
51036;SDS011;37064;59.346;18.058;2023-03-07T07:59:28;2.47;;;1.15;;
51036;SDS011;37064;59.346;18.058;2023-03-07T08:01:58;3.92;;;1.15;;
51036;SDS011;37064;59.346;18.058;2023-03-07T08:04:24;2.08;;;1.00;;
51036;SDS011;37064;59.346;18.058;2023-03-07T08:06:50;2.88;;;1.42;;
51036;SDS011;37064;59.346;18.058;2023-03-07T08:09:16;1.73;;;1.20;;
51036;SDS011;37064;59.346;18.058;2023-03-07T08:11:42;4.88;;;1.52;;
51036;SDS011;37064;59.346;18.058;2023-03-07T08:14:08;1.15;;;1.00;;
51036;SDS011;37064;59.346;18.058;2023-03-07T08:16:35;2.72;;;1.33;;
51036;SDS011;37064;59.346;18.058;2023-03-07T08:19:01;2.20;;;1.38;;
51036;SDS011;37064;59.346;18.058;2023-03-07T08:21:27;3.67;;;1.10;;
51036;SDS011;37064;59.346;18.058;2023-03-07T08:23:53;2.17;;;1.10;;
51036;SDS011;37064;59.346;18.058;2023-03-07T08:26:19;1.10;;;0.80;;
51036;SDS011;37064;59.346;18.058;2023-03-07T08:28:45;2.03;;;1.00;;
51036;SDS011;37064;59.346;18.058;2023-03-07T08:31:15;2.90;;;1.70;;
51036;SDS011;37064;59.346;18.058;2023-03-07T08:33:42;1.88;;;1.08;;
51036;SDS011;37064;59.346;18.058;2023-03-07T08:36:08;4.82;;;0.88;;
51036;SDS011;37064;59.346;18.058;2023-03-07T08:38:34;3.20;;;0.80;;
51036;SDS011;37064;59.346;18.058;2023-03-07T08:41:01;2.35;;;1.08;;
51036;SDS011;37064;59.346;18.058;2023-03-07T08:43:28;2.28;;;0.75;;
51036;SDS011;37064;59.346;18.058;2023-03-07T08:45:55;1.33;;;0.80;;
51036;SDS011;37064;59.346;18.058;2023-03-07T08:48:21;1.30;;;0.80;;
51036;SDS011;37064;59.346;18.058;2023-03-07T08:50:47;2.22;;;0.85;;
51036;SDS011;37064;59.346;18.058;2023-03-07T08:53:13;2.60;;;1.08;;
51036;SDS011;37064;59.346;18.058;2023-03-07T08:55:39;0.60;;;0.57;;
51036;SDS011;37064;59.346;18.058;2023-03-07T08:58:07;2.50;;;0.80;;
51036;SDS011;37064;59.346;18.058;2023-03-07T09:00:33;2.13;;;0.70;;
51036;SDS011;37064;59.346;18.058;2023-03-07T09:02:59;1.13;;;0.63;;
51036;SDS011;37064;59.346;18.058;2023-03-07T09:05:26;3.85;;;1.33;;
51036;SDS011;37064;59.346;18.058;2023-03-07T09:07:52;1.30;;;0.93;;
51036;SDS011;37064;59.346;18.058;2023-03-07T09:10:18;32.70;;;10.65;;
51036;SDS011;37064;59.346;18.058;2023-03-07T09:12:45;55.38;;;18.33;;
51036;SDS011;37064;59.346;18.058;2023-03-07T09:15:11;28.50;;;10.90;;
51036;SDS011;37064;59.346;18.058;2023-03-07T09:17:37;5.85;;;2.05;;
51036;SDS011;37064;59.346;18.058;2023-03-07T09:20:04;7.97;;;3.72;;
51036;SDS011;37064;59.346;18.058;2023-03-07T09:22:30;1.48;;;1.10;;
51036;SDS011;37064;59.346;18.058;2023-03-07T09:24:56;4.00;;;1.40;;
51036;SDS011;37064;59.346;18.058;2023-03-07T09:27:22;3.78;;;2.47;;
51036;SDS011;37064;59.346;18.058;2023-03-07T09:29:48;3.67;;;1.23;;
51036;SDS011;37064;59.346;18.058;2023-03-07T09:32:15;4.38;;;1.13;;
51036;SDS011;37064;59.346;18.058;2023-03-07T09:34:41;1.83;;;0.98;;
51036;SDS011;37064;59.346;18.058;2023-03-07T09:37:06;3.97;;;1.42;;
51036;SDS011;37064;59.346;18.058;2023-03-07T09:39:32;3.00;;;0.98;;
51036;SDS011;37064;59.346;18.058;2023-03-07T09:49:29;4.07;;;0.77;;
51036;SDS011;37064;59.346;18.058;2023-03-07T09:51:59;3.50;;;0.70;;
51036;SDS011;37064;59.346;18.058;2023-03-07T09:54:27;1.88;;;0.70;;
51036;SDS011;37064;59.346;18.058;2023-03-07T09:56:57;1.33;;;0.50;;
51036;SDS011;37064;59.346;18.058;2023-03-07T09:59:42;3.60;;;0.70;;
51036;SDS011;37064;59.346;18.058;2023-03-07T10:07:38;3.72;;;1.17;;
51036;SDS011;37064;59.346;18.058;2023-03-07T10:10:06;6.75;;;1.80;;
51036;SDS011;37064;59.346;18.058;2023-03-07T10:20:30;3.10;;;0.83;;
51036;SDS011;37064;59.346;18.058;2023-03-07T10:22:55;7.38;;;3.10;;
51036;SDS011;37064;59.346;18.058;2023-03-07T10:30:37;2.88;;;0.70;;
51036;SDS011;37064;59.346;18.058;2023-03-07T10:33:03;2.67;;;0.88;;
51036;SDS011;37064;59.346;18.058;2023-03-07T10:35:40;2.15;;;1.23;;
51036;SDS011;37064;59.346;18.058;2023-03-07T10:40:53;2.20;;;0.80;;
51036;SDS011;37064;59.346;18.058;2023-03-07T10:43:26;2.42;;;0.57;;
51036;SDS011;37064;59.346;18.058;2023-03-07T10:46:00;7.03;;;1.88;;
51036;SDS011;37064;59.346;18.058;2023-03-07T10:48:33;1.35;;;0.85;;
51036;SDS011;37064;59.346;18.058;2023-03-07T10:51:06;3.20;;;0.80;;
51036;SDS011;37064;59.346;18.058;2023-03-07T10:53:35;1.50;;;0.60;;
51036;SDS011;37064;59.346;18.058;2023-03-07T10:56:09;5.68;;;0.60;;
51036;SDS011;37064;59.346;18.058;2023-03-07T10:58:36;1.75;;;0.40;;
51036;SDS011;37064;59.346;18.058;2023-03-07T11:06:03;1.35;;;0.63;;
51036;SDS011;37064;59.346;18.058;2023-03-07T11:08:30;2.15;;;0.52;;
51036;SDS011;37064;59.346;18.058;2023-03-07T11:10:57;3.15;;;0.82;;
51036;SDS011;37064;59.346;18.058;2023-03-07T11:13:24;2.75;;;0.40;;
51036;SDS011;37064;59.346;18.058;2023-03-07T11:15:50;4.80;;;1.05;;
51036;SDS011;37064;59.346;18.058;2023-03-07T11:18:30;5.25;;;0.85;;
51036;SDS011;37064;59.346;18.058;2023-03-07T11:20:57;1.10;;;0.90;;
51036;SDS011;37064;59.346;18.058;2023-03-07T11:23:29;4.57;;;0.70;;
51036;SDS011;37064;59.346;18.058;2023-03-07T11:25:56;4.95;;;1.45;;
51036;SDS011;37064;59.346;18.058;2023-03-07T11:28:30;0.85;;;0.55;;
51036;SDS011;37064;59.346;18.058;2023-03-07T11:31:14;3.55;;;0.57;;
51036;SDS011;37064;59.346;18.058;2023-03-07T11:34:02;4.28;;;1.10;;
51036;SDS011;37064;59.346;18.058;2023-03-07T11:36:34;2.15;;;0.80;;
51036;SDS011;37064;59.346;18.058;2023-03-07T11:39:10;1.77;;;1.02;;
51036;SDS011;37064;59.346;18.058;2023-03-07T11:41:39;2.50;;;0.50;;
51036;SDS011;37064;59.346;18.058;2023-03-07T11:52:09;4.78;;;0.95;;
51036;SDS011;37064;59.346;18.058;2023-03-07T11:55:22;3.03;;;0.50;;
51036;SDS011;37064;59.346;18.058;2023-03-07T12:07:47;3.03;;;0.60;;
51036;SDS011;37064;59.346;18.058;2023-03-07T12:10:35;0.85;;;0.40;;
51036;SDS011;37064;59.346;18.058;2023-03-07T12:25:39;3.28;;;1.85;;
51036;SDS011;37064;59.346;18.058;2023-03-07T12:28:16;1.60;;;0.88;;
51036;SDS011;37064;59.346;18.058;2023-03-07T12:33:16;3.22;;;0.65;;
51036;SDS011;37064;59.346;18.058;2023-03-07T12:35:46;3.00;;;0.65;;
51036;SDS011;37064;59.346;18.058;2023-03-07T12:38:17;3.45;;;0.73;;
51036;SDS011;37064;59.346;18.058;2023-03-07T12:40:48;5.47;;;1.15;;
51036;SDS011;37064;59.346;18.058;2023-03-07T12:43:20;3.17;;;0.50;;
51036;SDS011;37064;59.346;18.058;2023-03-07T12:45:49;2.47;;;0.77;;
51036;SDS011;37064;59.346;18.058;2023-03-07T12:48:17;1.42;;;0.73;;
51036;SDS011;37064;59.346;18.058;2023-03-07T12:50:52;1.75;;;0.70;;
51036;SDS011;37064;59.346;18.058;2023-03-07T12:58:49;1.23;;;0.50;;
51036;SDS011;37064;59.346;18.058;2023-03-07T13:01:18;1.65;;;0.70;;
51036;SDS011;37064;59.346;18.058;2023-03-07T13:04:04;3.20;;;0.55;;
51036;SDS011;37064;59.346;18.058;2023-03-07T13:06:31;1.10;;;0.60;;
51036;SDS011;37064;59.346;18.058;2023-03-07T13:08:59;1.00;;;0.60;;
51036;SDS011;37064;59.346;18.058;2023-03-07T13:11:26;3.13;;;0.60;;
51036;SDS011;37064;59.346;18.058;2023-03-07T13:13:59;3.85;;;0.60;;
51036;SDS011;37064;59.346;18.058;2023-03-07T13:21:43;1.05;;;0.60;;
51036;SDS011;37064;59.346;18.058;2023-03-07T13:26:54;3.83;;;0.60;;
51036;SDS011;37064;59.346;18.058;2023-03-07T13:32:45;1.38;;;0.60;;
51036;SDS011;37064;59.346;18.058;2023-03-07T13:34:51;4.47;;;0.60;;
51036;SDS011;37064;59.346;18.058;2023-03-07T13:40:02;1.63;;;0.70;;
51036;SDS011;37064;59.346;18.058;2023-03-07T13:42:43;2.25;;;0.47;;
51036;SDS011;37064;59.346;18.058;2023-03-07T13:47:54;1.63;;;0.68;;
51036;SDS011;37064;59.346;18.058;2023-03-07T13:52:58;3.45;;;0.98;;
51036;SDS011;37064;59.346;18.058;2023-03-07T13:55:27;0.68;;;0.50;;
51036;SDS011;37064;59.346;18.058;2023-03-07T13:57:54;1.30;;;0.75;;
51036;SDS011;37064;59.346;18.058;2023-03-07T14:00:22;3.85;;;0.70;;
51036;SDS011;37064;59.346;18.058;2023-03-07T14:02:49;2.60;;;0.55;;
51036;SDS011;37064;59.346;18.058;2023-03-07T14:05:16;2.05;;;0.60;;
51036;SDS011;37064;59.346;18.058;2023-03-07T14:07:42;2.78;;;0.52;;
51036;SDS011;37064;59.346;18.058;2023-03-07T14:10:10;4.03;;;0.60;;
51036;SDS011;37064;59.346;18.058;2023-03-07T14:12:53;0.85;;;0.50;;
51036;SDS011;37064;59.346;18.058;2023-03-07T14:26:19;2.78;;;0.70;;
51036;SDS011;37064;59.346;18.058;2023-03-07T14:28:50;4.03;;;0.70;;
51036;SDS011;37064;59.346;18.058;2023-03-07T14:31:38;1.52;;;0.52;;
51036;SDS011;37064;59.346;18.058;2023-03-07T14:34:24;2.28;;;0.60;;
51036;SDS011;37064;59.346;18.058;2023-03-07T14:39:24;1.90;;;0.60;;
51036;SDS011;37064;59.346;18.058;2023-03-07T14:49:27;0.70;;;0.50;;
51036;SDS011;37064;59.346;18.058;2023-03-07T14:51:57;0.90;;;0.70;;
51036;SDS011;37064;59.346;18.058;2023-03-07T14:54:24;0.60;;;0.50;;
51036;SDS011;37064;59.346;18.058;2023-03-07T14:56:53;1.58;;;0.70;;
51036;SDS011;37064;59.346;18.058;2023-03-07T14:59:19;0.90;;;0.60;;
51036;SDS011;37064;59.346;18.058;2023-03-07T15:01:46;0.98;;;0.57;;
51036;SDS011;37064;59.346;18.058;2023-03-07T15:04:29;1.52;;;0.80;;
51036;SDS011;37064;59.346;18.058;2023-03-07T15:06:57;1.30;;;0.60;;
51036;SDS011;37064;59.346;18.058;2023-03-07T15:09:23;1.17;;;0.63;;
51036;SDS011;37064;59.346;18.058;2023-03-07T15:14:42;5.05;;;1.73;;
51036;SDS011;37064;59.346;18.058;2023-03-07T15:17:15;2.95;;;0.73;;
51036;SDS011;37064;59.346;18.058;2023-03-07T15:20:04;0.47;;;0.47;;
51036;SDS011;37064;59.346;18.058;2023-03-07T15:22:28;2.63;;;1.15;;
51036;SDS011;37064;59.346;18.058;2023-03-07T15:24:56;2.50;;;0.60;;
51036;SDS011;37064;59.346;18.058;2023-03-07T15:27:26;3.03;;;1.00;;
51036;SDS011;37064;59.346;18.058;2023-03-07T15:29:52;3.70;;;1.35;;
51036;SDS011;37064;59.346;18.058;2023-03-07T15:34:58;1.77;;;0.73;;
51036;SDS011;37064;59.346;18.058;2023-03-07T15:37:25;3.50;;;1.15;;
51036;SDS011;37064;59.346;18.058;2023-03-07T15:42:23;2.10;;;0.70;;
51036;SDS011;37064;59.346;18.058;2023-03-07T15:44:59;2.75;;;0.80;;
51036;SDS011;37064;59.346;18.058;2023-03-07T15:47:26;4.38;;;0.52;;
51036;SDS011;37064;59.346;18.058;2023-03-07T15:49:53;1.67;;;0.60;;
51036;SDS011;37064;59.346;18.058;2023-03-07T15:52:34;2.70;;;0.60;;
51036;SDS011;37064;59.346;18.058;2023-03-07T15:55:02;1.00;;;0.70;;
51036;SDS011;37064;59.346;18.058;2023-03-07T15:57:48;1.42;;;0.70;;
51036;SDS011;37064;59.346;18.058;2023-03-07T16:00:19;2.63;;;1.55;;
51036;SDS011;37064;59.346;18.058;2023-03-07T16:02:46;1.08;;;0.70;;
51036;SDS011;37064;59.346;18.058;2023-03-07T16:07:47;1.40;;;0.80;;
51036;SDS011;37064;59.346;18.058;2023-03-07T16:10:16;3.13;;;0.80;;
51036;SDS011;37064;59.346;18.058;2023-03-07T16:12:42;2.17;;;1.13;;
51036;SDS011;37064;59.346;18.058;2023-03-07T16:15:13;7.38;;;2.10;;
51036;SDS011;37064;59.346;18.058;2023-03-07T16:17:40;1.77;;;0.95;;
51036;SDS011;37064;59.346;18.058;2023-03-07T16:20:20;3.28;;;0.90;;
51036;SDS011;37064;59.346;18.058;2023-03-07T16:22:46;1.50;;;1.10;;
51036;SDS011;37064;59.346;18.058;2023-03-07T16:25:13;1.55;;;0.90;;
51036;SDS011;37064;59.346;18.058;2023-03-07T16:27:39;1.08;;;0.75;;
51036;SDS011;37064;59.346;18.058;2023-03-07T16:32:38;2.58;;;1.02;;
51036;SDS011;37064;59.346;18.058;2023-03-07T16:35:10;0.90;;;0.50;;
51036;SDS011;37064;59.346;18.058;2023-03-07T16:37:36;1.35;;;0.65;;
51036;SDS011;37064;59.346;18.058;2023-03-07T16:40:03;2.25;;;0.60;;
51036;SDS011;37064;59.346;18.058;2023-03-07T16:42:30;9.77;;;0.90;;
51036;SDS011;37064;59.346;18.058;2023-03-07T16:44:56;1.33;;;0.52;;
51036;SDS011;37064;59.346;18.058;2023-03-07T16:47:22;3.17;;;0.93;;
51036;SDS011;37064;59.346;18.058;2023-03-07T16:49:48;1.75;;;0.90;;